Time;durP1;ratioP1;P1;durP2;ratioP2;P2;SDS_P1;SDS_P2;PMS_P1;PMS_P2;Temp;Humidity;BMP_temperature;BMP_pressure;BME280_temperature;BME280_humidity;BME280_pressure;Samples;Min_cycle;Max_cycle;Signal;HPM_P1;HPM_P2
2020/12/12 00:01:36;;;;;;;9.63;7.32;;;;;;;22.67;43.04;93739.78;4925704;28;20028;-77
2020/12/12 00:04:01;;;;;;;9.70;6.90;;;;;;;22.63;43.14;93736.66;4958297;28;20034;-76
2020/12/12 00:06:27;;;;;;;11.43;7.30;;;;;;;22.58;42.97;93724.66;4926165;29;20086;-78
2020/12/12 00:08:52;;;;;;;11.32;7.45;;;;;;;22.61;42.99;93729.03;4942051;28;20484;-79
2020/12/12 00:11:21;;;;;;;10.55;7.45;;;;;;;22.57;43.20;93722.47;4926553;29;20039;-77
2020/12/12 00:13:46;;;;;;;10.40;7.53;;;;;;;22.61;43.17;93717.44;4942692;28;20062;-78
2020/12/12 00:16:14;;;;;;;10.27;7.30;;;;;;;22.60;43.21;93715.97;4942967;28;20023;-79
2020/12/12 00:18:40;;;;;;;10.38;7.50;;;;;;;22.58;43.05;93718.50;4941804;28;20046;-78
2020/12/12 00:21:06;;;;;;;9.90;7.07;;;;;;;22.55;43.24;93714.84;4942549;29;20484;-79
2020/12/12 00:23:32;;;;;;;11.23;8.05;;;;;;;22.53;43.33;93713.94;4941448;28;20043;-78
2020/12/12 00:25:58;;;;;;;9.95;7.47;;;;;;;22.47;43.11;93707.91;4942878;28;20039;-78
2020/12/12 00:28:23;;;;;;;10.70;7.40;;;;;;;22.44;43.36;93706.25;4941770;28;20027;-81
2020/12/12 00:30:49;;;;;;;11.02;8.00;;;;;;;22.43;43.41;93707.53;4945922;28;20046;-78
2020/12/12 00:33:14;;;;;;;9.68;6.97;;;;;;;22.45;43.36;93704.97;4945365;28;20019;-78
2020/12/12 00:35:39;;;;;;;11.60;7.90;;;;;;;22.42;43.19;93700.63;4946236;28;20027;-78
2020/12/12 00:38:05;;;;;;;9.85;7.28;;;;;;;22.41;43.35;93693.72;4928725;29;20350;-77
2020/12/12 00:40:30;;;;;;;11.07;7.80;;;;;;;22.36;43.49;93686.47;4945545;28;20038;-81
2020/12/12 00:42:56;;;;;;;11.32;8.32;;;;;;;22.38;43.44;93689.34;4945033;28;20038;-78
2020/12/12 00:45:21;;;;;;;10.35;8.05;;;;;;;22.38;43.40;93689.34;4945171;28;20043;-78
2020/12/12 00:47:46;;;;;;;10.35;8.07;;;;;;;22.34;43.58;93686.25;4944571;28;20028;-79
2020/12/12 00:50:12;;;;;;;10.50;7.38;;;;;;;22.33;43.85;93686.78;4943815;28;20050;-78
2020/12/12 00:52:37;;;;;;;11.63;8.07;;;;;;;22.33;43.52;93682.09;4962035;28;20035;-78
2020/12/12 00:55:03;;;;;;;11.15;8.05;;;;;;;22.33;43.59;93676.66;4945702;28;20058;-77
2020/12/12 00:57:28;;;;;;;11.90;8.32;;;;;;;22.31;43.55;93679.16;4928939;29;20032;-78
2020/12/12 00:59:54;;;;;;;10.60;7.95;;;;;;;22.30;43.49;93682.41;4944819;28;20042;-77
2020/12/12 01:02:19;;;;;;;12.38;8.23;;;;;;;22.27;43.56;93673.34;4945201;28;20095;-78
2020/12/12 01:04:45;;;;;;;11.98;7.88;;;;;;;22.27;43.61;93673.34;4959837;28;20023;-79
2020/12/12 01:07:10;;;;;;;12.63;9.23;;;;;;;22.26;43.82;93669.16;4960597;28;20051;-78
2020/12/12 01:09:36;;;;;;;9.93;7.85;;;;;;;22.23;43.68;93670.22;4945984;28;20507;-78
2020/12/12 01:12:01;;;;;;;11.00;8.13;;;;;;;22.20;43.85;93668.53;4945776;28;20031;-77
2020/12/12 01:14:26;;;;;;;11.32;8.27;;;;;;;22.17;43.73;93669.59;4944781;28;20054;-77
2020/12/12 01:16:52;;;;;;;12.07;8.15;;;;;;;22.17;43.87;93664.16;4945713;28;20027;-78
2020/12/12 01:19:17;;;;;;;13.57;8.75;;;;;;;22.18;43.77;93665.63;4927133;28;20027;-78
2020/12/12 01:21:43;;;;;;;11.57;8.27;;;;;;;22.11;43.80;93647.28;4929698;29;20031;-78
2020/12/12 01:24:08;;;;;;;12.18;8.32;;;;;;;22.17;43.84;93656.00;4945992;28;20054;-78
2020/12/12 01:26:34;;;;;;;12.60;8.68;;;;;;;22.15;43.59;93649.63;4944093;28;20034;-78
2020/12/12 01:28:59;;;;;;;13.70;9.00;;;;;;;22.13;43.94;93652.19;4911943;28;20412;-77
2020/12/12 01:31:25;;;;;;;12.60;8.90;;;;;;;22.12;43.77;93648.75;4943068;28;20416;-78
2020/12/12 01:33:51;;;;;;;12.07;8.70;;;;;;;22.11;43.92;93641.13;4960596;28;20130;-78
2020/12/12 01:36:16;;;;;;;12.05;8.65;;;;;;;22.07;43.90;93638.00;4945337;28;20529;-77
2020/12/12 01:38:42;;;;;;;12.88;8.68;;;;;;;22.10;44.06;93643.09;4943524;28;20554;-77
2020/12/12 01:41:07;;;;;;;12.38;8.60;;;;;;;22.07;43.33;93638.72;4927735;29;20035;-78
2020/12/12 01:43:33;;;;;;;13.35;9.77;;;;;;;22.09;43.97;93636.22;4931360;29;20031;-78
2020/12/12 01:45:58;;;;;;;12.82;9.15;;;;;;;22.02;43.86;93636.88;4961361;28;20039;-78
2020/12/12 01:48:23;;;;;;;12.10;8.77;;;;;;;22.00;44.16;93628.53;4927835;28;20082;-79
2020/12/12 01:50:49;;;;;;;13.13;9.02;;;;;;;22.00;44.15;93628.53;4928242;29;20043;-78
2020/12/12 01:53:14;;;;;;;12.68;8.93;;;;;;;22.00;43.98;93633.22;4942673;28;20031;-78
2020/12/12 01:55:45;;;;;;;14.18;9.35;;;;;;;22.02;43.92;93620.56;4943479;28;20031;-77
2020/12/12 01:58:10;;;;;;;;;;;;;;;21.98;44.17;93630.31;4943464;29;20086;-78
2020/12/12 02:00:35;;;;;;;13.13;8.87;;;;;;;21.99;43.92;93616.19;4944241;28;20382;-77
2020/12/12 02:03:01;;;;;;;12.55;8.60;;;;;;;21.99;44.10;93616.19;4943449;28;20279;-77
2020/12/12 02:05:39;;;;;;;12.93;8.43;;;;;;;21.98;44.21;93620.16;4943369;28;20039;-78
2020/12/12 02:08:06;;;;;;;12.43;8.77;;;;;;;21.98;43.95;93609.28;4943793;28;20102;-79
2020/12/12 02:10:32;;;;;;;12.23;8.80;;;;;;;22.00;44.08;93612.22;4948199;28;20423;-77
2020/12/12 02:12:58;;;;;;;14.32;9.45;;;;;;;21.96;43.99;93617.25;4948086;28;20031;-77
2020/12/12 02:15:23;;;;;;;14.77;9.70;;;;;;;21.97;44.05;93617.97;4945452;28;20513;-78
2020/12/12 02:17:49;;;;;;;12.38;9.07;;;;;;;21.95;44.14;93604.91;4945311;28;20082;-77
2020/12/12 02:20:14;;;;;;;12.98;9.18;;;;;;;21.96;44.01;93609.09;4942696;28;20034;-79
2020/12/12 02:22:40;;;;;;;12.98;9.73;;;;;;;21.86;44.06;93601.25;4961018;28;20404;-77
2020/12/12 02:25:05;;;;;;;14.35;9.57;;;;;;;21.88;44.17;93599.44;4942655;28;20415;-78
2020/12/12 02:27:30;;;;;;;12.82;9.23;;;;;;;21.91;44.24;93598.38;4942648;28;20043;-78
2020/12/12 02:29:56;;;;;;;13.75;9.27;;;;;;;21.91;44.67;93594.94;4943940;28;20027;-79
2020/12/12 02:32:21;;;;;;;12.60;9.57;;;;;;;21.91;44.13;93592.22;4944084;28;20035;-77
2020/12/12 02:34:47;;;;;;;13.88;9.45;;;;;;;21.91;44.16;93592.22;4958992;28;20027;-78
2020/12/12 02:37:12;;;;;;;13.52;9.20;;;;;;;21.89;44.07;93597.47;4941553;28;20039;-77
2020/12/12 02:39:37;;;;;;;13.75;9.48;;;;;;;21.89;44.14;93595.47;4943801;28;20114;-77
2020/12/12 02:42:03;;;;;;;12.23;9.00;;;;;;;21.89;44.09;93583.88;4941951;28;20028;-78
2020/12/12 02:44:28;;;;;;;13.57;9.60;;;;;;;21.87;44.26;93589.09;4924943;28;20714;-78
2020/12/12 02:46:54;;;;;;;12.68;9.20;;;;;;;21.90;44.31;93579.88;4943609;28;20058;-77
2020/12/12 02:49:19;;;;;;;11.63;8.77;;;;;;;21.86;44.27;93579.50;4958406;28;20503;-78
2020/12/12 02:51:44;;;;;;;14.73;9.77;;;;;;;21.85;44.21;93573.31;4943683;28;20038;-77
2020/12/12 02:54:10;;;;;;;12.07;9.55;;;;;;;21.85;44.08;93576.03;4942426;28;20499;-78
2020/12/12 02:56:35;;;;;;;17.05;10.13;;;;;;;21.83;44.10;93580.56;4942327;28;20047;-78
2020/12/12 02:59:01;;;;;;;12.82;9.43;;;;;;;21.79;44.21;93575.47;4942607;28;20150;-77
2020/12/12 03:01:27;;;;;;;12.10;9.18;;;;;;;21.81;44.29;93583.06;4942871;28;20035;-78
2020/12/12 03:03:52;;;;;;;13.93;9.55;;;;;;;21.80;44.27;93576.91;4943524;28;20031;-79
2020/12/12 03:06:18;;;;;;;13.65;9.43;;;;;;;21.77;43.99;93571.84;4926742;28;20420;-79
2020/12/12 03:08:43;;;;;;;12.88;9.07;;;;;;;21.74;44.23;93564.75;4942565;28;20405;-78
2020/12/12 03:11:09;;;;;;;11.73;8.68;;;;;;;21.76;44.19;93573.09;4943615;28;20392;-78
2020/12/12 03:13:34;;;;;;;12.20;8.75;;;;;;;21.79;44.17;93569.31;4942095;28;20031;-78
2020/12/12 03:15:59;;;;;;;13.80;9.25;;;;;;;21.76;44.25;93559.50;4943213;28;20040;-79
2020/12/12 03:18:25;;;;;;;12.95;8.93;;;;;;;21.77;44.31;93577.28;4926617;29;20489;-78
2020/12/12 03:20:50;;;;;;;12.95;9.18;;;;;;;21.73;44.27;93568.72;4958827;28;20043;-78
2020/12/12 03:23:16;;;;;;;11.52;8.77;;;;;;;21.73;44.22;93560.56;4942955;28;20047;-77
2020/12/12 03:25:41;;;;;;;12.35;9.30;;;;;;;21.74;44.23;93560.03;4926283;28;20121;-78
2020/12/12 03:28:07;;;;;;;13.63;9.32;;;;;;;21.76;44.24;93559.50;4942216;28;20015;-77
2020/12/12 03:30:33;;;;;;;14.80;10.00;;;;;;;21.74;44.45;93557.31;4942491;28;20456;-78
2020/12/12 03:32:59;;;;;;;13.07;9.40;;;;;;;21.75;44.17;93558.03;4941134;28;20031;-78
2020/12/12 03:35:24;;;;;;;11.90;8.95;;;;;;;21.72;44.24;93554.41;4958344;28;20027;-77
2020/12/12 03:37:49;;;;;;;15.38;9.60;;;;;;;21.73;44.38;93555.13;4941892;28;20035;-78
2020/12/12 03:40:15;;;;;;;14.00;9.15;;;;;;;21.74;44.18;93553.88;4943579;28;20471;-77
2020/12/12 03:42:40;;;;;;;12.95;9.10;;;;;;;21.72;44.38;93553.66;4958434;28;20523;-78
2020/12/12 03:45:06;;;;;;;13.90;9.82;;;;;;;21.72;44.19;93553.66;4943557;28;21374;-77
2020/12/12 03:47:31;;;;;;;13.23;9.13;;;;;;;21.66;44.36;93555.81;4943422;28;20059;-77
2020/12/12 03:49:56;;;;;;;13.65;9.30;;;;;;;21.69;44.12;93546.63;4942060;28;20036;-78
2020/12/12 03:52:22;;;;;;;12.98;9.02;;;;;;;21.77;44.21;93545.38;4944795;28;20523;-77
2020/12/12 03:54:47;;;;;;;12.95;8.75;;;;;;;21.84;44.27;93554.84;4943505;28;20443;-77
2020/12/12 03:57:13;;;;;;;13.38;9.18;;;;;;;21.88;44.30;93544.38;4939503;28;20035;-77
2020/12/12 03:59:38;;;;;;;14.25;9.45;;;;;;;21.92;43.97;93539.31;4942827;28;20027;-78
2020/12/12 04:02:04;;;;;;;13.75;9.48;;;;;;;21.93;44.28;93536.06;4942765;28;20050;-77
2020/12/12 04:04:29;;;;;;;12.20;9.05;;;;;;;21.96;44.18;93535.00;4947047;28;20042;-77
2020/12/12 04:06:55;;;;;;;13.45;9.35;;;;;;;22.00;44.04;93530.69;4946637;28;20038;-77
2020/12/12 04:09:20;;;;;;;13.63;8.60;;;;;;;21.99;44.23;93529.22;4946197;28;20035;-77
2020/12/12 04:11:46;;;;;;;12.27;8.60;;;;;;;22.02;44.07;93528.16;4944258;28;20031;-78
2020/12/12 04:14:11;;;;;;;11.95;8.00;;;;;;;22.05;43.79;93529.78;4946790;28;20028;-77
2020/12/12 04:16:36;;;;;;;11.98;8.48;;;;;;;22.09;44.16;93526.72;4948652;28;20042;-77
2020/12/12 04:19:02;;;;;;;13.77;8.98;;;;;;;22.11;43.92;93530.38;4961527;28;20016;-78
2020/12/12 04:21:27;;;;;;;13.13;9.20;;;;;;;22.11;44.17;93519.50;4962674;28;20031;-78
2020/12/12 04:23:53;;;;;;;11.50;8.13;;;;;;;22.12;44.05;93520.97;4944622;28;20106;-77
2020/12/12 04:26:18;;;;;;;12.85;8.10;;;;;;;22.13;44.11;93522.41;4946829;28;20035;-77
2020/12/12 04:28:43;;;;;;;10.13;7.60;;;;;;;22.17;43.56;93522.78;4944416;28;20023;-82
2020/12/12 04:31:09;;;;;;;11.70;8.65;;;;;;;22.19;43.96;93522.25;4945859;28;20028;-77
2020/12/12 04:33:35;;;;;;;11.73;8.45;;;;;;;22.21;43.88;93517.78;4963299;28;20500;-78
2020/12/12 04:36:00;;;;;;;11.43;7.97;;;;;;;22.22;43.70;93519.22;4967273;28;20041;-77
2020/12/12 04:38:27;;;;;;;12.23;8.40;;;;;;;22.22;44.02;93519.22;4950352;28;20027;-79
2020/12/12 04:40:53;;;;;;;10.43;7.80;;;;;;;22.25;44.06;93518.13;4915660;28;20154;-79
2020/12/12 04:43:19;;;;;;;11.70;7.97;;;;;;;22.23;43.64;93509.78;4944520;28;20472;-83
2020/12/12 04:45:44;;;;;;;10.77;8.15;;;;;;;22.28;43.64;93517.06;4943958;28;20496;-77
2020/12/12 04:48:10;;;;;;;9.65;7.35;;;;;;;22.30;43.60;93514.53;4924793;28;20031;-78
2020/12/12 04:50:35;;;;;;;11.65;7.75;;;;;;;22.31;43.65;93505.09;4944662;29;20026;-76
2020/12/12 04:53:16;;;;;;;10.32;7.45;;;;;;;22.32;43.78;93501.13;4947556;29;20855;-78
2020/12/12 04:55:52;;;;;;;10.52;7.50;;;;;;;22.29;43.71;93499.50;4945401;28;20496;-78
2020/12/12 04:58:19;;;;;;;11.05;7.43;;;;;;;22.32;43.61;93495.69;4928285;29;20039;-81
2020/12/12 05:00:45;;;;;;;11.20;7.32;;;;;;;22.34;43.56;93504.03;4960788;28;20023;-78
2020/12/12 05:03:12;;;;;;;10.02;7.28;;;;;;;22.35;43.63;93493.91;4944279;28;20031;-78
2020/12/12 05:05:38;;;;;;;9.85;6.95;;;;;;;22.36;43.52;93495.34;4944423;29;20027;-78
2020/12/12 05:08:03;;;;;;;10.60;6.90;;;;;;;22.39;43.78;93500.44;4944432;28;20880;-78
2020/12/12 05:10:35;;;;;;;10.88;7.22;;;;;;;22.40;43.69;93501.88;4944987;28;20038;-79
2020/12/12 05:13:00;;;;;;;10.38;7.00;;;;;;;22.41;43.46;93491.75;4945417;28;20609;-77
2020/12/12 05:15:26;;;;;;;10.05;7.00;;;;;;;22.35;43.56;93478.28;4944037;28;20035;-78
2020/12/12 05:17:51;;;;;;;8.88;6.72;;;;;;;22.42;44.13;93488.47;4943896;28;20039;-78
2020/12/12 05:20:17;;;;;;;9.43;7.15;;;;;;;22.41;43.33;93487.03;4928630;28;20051;-79
2020/12/12 05:22:42;;;;;;;10.55;7.28;;;;;;;22.42;43.50;93477.59;4961588;28;20046;-78
2020/12/12 05:25:08;;;;;;;9.50;6.68;;;;;;;22.45;43.52;93481.94;4945705;28;20097;-78
2020/12/12 05:27:33;;;;;;;10.18;7.32;;;;;;;22.45;43.60;93479.22;4943947;28;20023;-79
2020/12/12 05:29:59;;;;;;;9.55;6.78;;;;;;;22.44;43.38;93475.06;4944149;28;20038;-78
2020/12/12 05:32:24;;;;;;;9.95;6.40;;;;;;;22.47;43.57;93479.41;4928099;29;20038;-78
2020/12/12 05:34:53;;;;;;;9.43;6.95;;;;;;;22.45;43.53;93476.50;4944550;28;20047;-78
2020/12/12 05:37:18;;;;;;;8.70;6.30;;;;;;;22.47;43.31;93482.16;4941445;28;20046;-79
2020/12/12 05:39:48;;;;;;;8.80;6.10;;;;;;;22.50;43.36;93484.50;4960204;28;20027;-80
2020/12/12 05:42:20;;;;;;;8.88;6.10;;;;;;;22.52;43.17;93481.25;4960475;28;20031;-77
2020/12/12 05:44:49;;;;;;;8.15;6.05;;;;;;;22.56;43.27;93476.19;4927773;28;20027;-77
2020/12/12 05:47:15;;;;;;;8.00;6.07;;;;;;;22.59;43.18;93480.53;4943798;29;20054;-79
2020/12/12 05:49:45;;;;;;;8.38;6.28;;;;;;;22.61;42.85;93478.00;4943473;28;20440;-81
2020/12/12 05:52:11;;;;;;;8.25;5.88;;;;;;;22.64;43.38;93476.91;4944292;28;20090;-82
2020/12/12 05:54:36;;;;;;;8.80;5.72;;;;;;;22.63;43.21;93475.47;4927487;29;20031;-87
2020/12/12 05:57:02;;;;;;;8.05;5.72;;;;;;;22.64;42.89;93477.63;4941759;28;20467;-91
2020/12/12 05:59:27;;;;;;;8.07;5.75;;;;;;;22.66;43.03;93474.38;4942634;29;20031;-81
2020/12/12 06:01:54;;;;;;;9.07;5.97;;;;;;;22.64;43.21;93471.47;4940031;28;20051;-83
2020/12/12 06:04:19;;;;;;;8.35;5.93;;;;;;;22.66;42.93;93468.94;4925719;29;20038;-81
2020/12/12 06:06:45;;;;;;;7.70;5.30;;;;;;;22.64;43.18;93466.03;4925553;28;20035;-80
2020/12/12 06:09:14;;;;;;;7.25;5.28;;;;;;;22.67;43.11;93471.13;4927289;28;20447;-81
2020/12/12 06:11:40;;;;;;;7.93;5.53;;;;;;;22.70;43.16;93469.31;4955997;28;20043;-80
2020/12/12 06:14:06;;;;;;;8.77;5.93;;;;;;;22.71;43.04;93470.78;4942121;28;20530;-81
2020/12/12 06:16:34;;;;;;;7.28;5.38;;;;;;;22.68;42.79;93467.13;4943105;28;20071;-83
2020/12/12 06:19:12;;;;;;;7.43;5.40;;;;;;;22.70;42.79;93466.59;4941407;28;20054;-82
2020/12/12 06:21:42;;;;;;;7.57;5.45;;;;;;;22.71;42.70;93474.22;4943039;28;20036;-81
2020/12/12 06:24:10;;;;;;;7.47;5.45;;;;;;;22.69;43.06;93456.97;4942566;28;20055;-81
2020/12/12 06:26:44;;;;;;;6.70;4.93;;;;;;;22.73;42.65;93462.78;4944286;28;20039;-81
2020/12/12 06:29:09;;;;;;;7.05;5.03;;;;;;;22.72;42.86;93466.78;4943816;28;20019;-82
2020/12/12 06:31:36;;;;;;;7.00;5.10;;;;;;;22.74;42.76;93464.25;4944138;28;20051;-80
2020/12/12 06:34:01;;;;;;;7.13;5.18;;;;;;;22.70;42.90;93458.44;4854241;28;20044;-79
2020/12/12 06:36:30;;;;;;;7.53;4.97;;;;;;;22.76;43.23;93464.44;4934176;28;20098;-82
2020/12/12 06:39:14;;;;;;;7.50;4.80;;;;;;;22.75;43.22;93461.00;4943578;28;20087;-84
2020/12/12 06:41:40;;;;;;;7.88;5.40;;;;;;;22.74;43.15;93458.81;4945149;28;20436;-86
2020/12/12 06:44:06;;;;;;;7.75;5.47;;;;;;;22.72;43.01;93450.44;4944536;28;20027;-81
2020/12/12 06:46:52;;;;;;;6.57;4.60;;;;;;;22.71;43.33;93451.72;4961490;28;20035;-92
2020/12/12 06:49:17;;;;;;;6.30;4.70;;;;;;;22.77;43.11;93460.44;4944850;28;20032;-82
2020/12/12 06:51:43;;;;;;;7.15;4.75;;;;;;;22.73;43.21;93451.91;4925210;29;20034;-86
2020/12/12 06:54:08;;;;;;;7.50;5.45;;;;;;;22.76;43.31;93450.81;4944748;28;20039;-80
2020/12/12 06:56:34;;;;;;;7.07;4.95;;;;;;;22.78;43.11;93459.16;4947769;29;20031;-81
2020/12/12 06:59:27;;;;;;;6.72;4.68;;;;;;;22.78;43.33;93459.16;4948783;28;20445;-81
2020/12/12 07:01:57;;;;;;;6.70;4.50;;;;;;;22.78;43.18;93465.34;4945830;28;20047;-81
2020/12/12 07:04:29;;;;;;;6.63;4.55;;;;;;;22.82;42.88;93459.53;4945310;28;20130;-80
2020/12/12 07:07:09;;;;;;;6.55;4.22;;;;;;;22.85;42.98;93463.91;4925893;28;20023;-79
2020/12/12 07:09:35;;;;;;;6.05;4.20;;;;;;;22.84;43.06;93457.00;4941818;28;20043;-78
2020/12/12 07:12:00;;;;;;;6.60;4.40;;;;;;;22.88;43.14;93458.84;4926407;28;20188;-82
2020/12/12 07:14:26;;;;;;;6.30;4.15;;;;;;;22.90;43.14;93450.13;4943586;28;20035;-89
2020/12/12 07:16:57;;;;;;;6.05;4.50;;;;;;;22.90;42.76;93448.13;4942301;28;20027;-80
2020/12/12 07:19:39;;;;;;;6.05;4.40;;;;;;;23.01;43.03;93450.50;4941890;28;20039;-78
2020/12/12 07:22:10;;;;;;;5.43;4.00;;;;;;;23.07;42.41;93453.78;4944135;28;20093;-79
2020/12/12 07:24:36;;;;;;;5.57;4.15;;;;;;;23.15;42.71;93453.78;4941025;28;20047;-79
2020/12/12 07:27:02;;;;;;;6.18;4.40;;;;;;;23.12;42.62;93433.81;4942000;28;20052;-78
2020/12/12 07:29:28;;;;;;;5.45;4.20;;;;;;;23.25;42.30;93452.69;4941849;28;20046;-78
2020/12/12 07:31:53;;;;;;;6.53;4.20;;;;;;;23.24;41.95;93434.88;4942025;28;20039;-77
2020/12/12 07:34:19;;;;;;;5.68;4.00;;;;;;;23.35;41.92;93439.97;4943347;28;20515;-78
2020/12/12 07:36:45;;;;;;;5.80;3.83;;;;;;;23.42;41.79;93436.50;4958404;28;21076;-78
2020/12/12 07:39:11;;;;;;;5.75;4.20;;;;;;;23.47;41.58;93435.59;4946635;28;20049;-77
2020/12/12 07:41:43;;;;;;;5.43;4.18;;;;;;;23.52;41.92;93440.84;4945563;28;20038;-82
2020/12/12 07:44:08;;;;;;;5.93;3.88;;;;;;;23.61;41.83;93439.56;4945843;28;20046;-78
2020/12/12 07:46:40;;;;;;;5.30;3.65;;;;;;;23.70;41.38;93436.31;4946528;28;20035;-76
2020/12/12 07:49:08;;;;;;;5.10;3.47;;;;;;;23.80;41.34;93434.47;4946790;28;20090;-76
2020/12/12 07:51:34;;;;;;;5.15;3.33;;;;;;;23.86;41.31;93435.00;4947388;28;20484;-78
2020/12/12 07:54:00;;;;;;;5.78;3.58;;;;;;;23.91;41.29;93435.50;4947064;28;20039;-78
2020/12/12 07:56:26;;;;;;;5.18;3.63;;;;;;;23.97;41.43;93433.31;4963676;28;20024;-84
2020/12/12 07:59:07;;;;;;;4.95;3.53;;;;;;;23.96;41.02;93425.66;4946194;28;20522;-77
2020/12/12 08:01:33;;;;;;;4.72;3.45;;;;;;;24.00;40.94;93436.94;4947498;28;20090;-76
2020/12/12 08:03:58;;;;;;;4.50;3.40;;;;;;;24.07;40.78;93431.44;4946851;28;20049;-76
2020/12/12 08:06:27;;;;;;;5.35;3.25;;;;;;;24.09;41.19;93431.63;4946497;28;20023;-80
2020/12/12 08:08:54;;;;;;;4.97;3.55;;;;;;;24.15;40.98;93426.69;4948553;28;20626;-79
2020/12/12 08:11:19;;;;;;;5.15;3.60;;;;;;;24.21;40.54;93429.94;4960707;28;20028;-79
2020/12/12 08:13:45;;;;;;;4.13;3.20;;;;;;;24.29;40.86;93430.66;4929543;28;20089;-78
2020/12/12 08:16:18;;;;;;;4.70;3.50;;;;;;;24.29;40.42;93425.19;4912672;28;20050;-81
2020/12/12 08:18:44;;;;;;;4.43;3.30;;;;;;;24.37;40.32;93431.34;4959808;28;20066;-78
2020/12/12 08:21:13;;;;;;;4.43;3.40;;;;;;;24.43;40.61;93429.13;4946870;28;20139;-77
2020/12/12 08:23:39;;;;;;;4.20;3.03;;;;;;;24.44;40.43;93430.59;4947909;28;20071;-76
2020/12/12 08:26:05;;;;;;;4.40;3.28;;;;;;;24.46;40.21;93433.50;4947106;28;20504;-77
2020/12/12 08:28:31;;;;;;;4.18;3.30;;;;;;;24.47;40.53;93434.94;4945702;28;20039;-77
2020/12/12 08:31:10;;;;;;;4.40;3.20;;;;;;;24.51;39.90;93435.28;4931607;29;20496;-76
2020/12/12 08:33:35;;;;;;;4.20;3.05;;;;;;;24.56;40.14;93437.09;4945868;28;20043;-79
2020/12/12 08:36:17;;;;;;;6.22;3.13;;;;;;;24.59;40.36;93433.25;4944648;28;20145;-74
2020/12/12 08:39:09;;;;;;;5.93;2.88;;;;;;;24.67;39.82;93436.66;4947736;28;20090;-79
2020/12/12 08:41:38;;;;;;;4.15;2.90;;;;;;;24.69;40.07;93434.78;4946505;28;20082;-78
2020/12/12 08:44:04;;;;;;;4.95;3.20;;;;;;;24.70;40.00;93441.00;4943879;28;20043;-78
2020/12/12 08:46:30;;;;;;;4.78;3.20;;;;;;;24.75;39.88;93437.31;4928601;28;20206;-77
2020/12/12 08:48:55;;;;;;;5.15;3.25;;;;;;;24.75;39.91;93426.41;4944212;28;20135;-77
2020/12/12 08:51:30;;;;;;;4.43;3.05;;;;;;;24.77;40.14;93434.75;4945341;28;20062;-78
2020/12/12 08:53:56;;;;;;;4.72;2.83;;;;;;;24.81;39.70;93429.63;4946512;28;20423;-79
2020/12/12 08:56:21;;;;;;;4.38;2.95;;;;;;;24.82;39.50;93427.06;4945052;28;20027;-79
2020/12/12 08:58:51;;;;;;;5.35;3.55;;;;;;;24.84;39.61;93429.97;4946550;28;20059;-78
2020/12/12 09:01:19;;;;;;;4.85;3.10;;;;;;;24.86;39.62;93432.88;4927126;28;20039;-78
2020/12/12 09:03:51;;;;;;;3.92;2.58;;;;;;;24.92;39.40;93424.47;4943988;28;20035;-79
2020/12/12 09:06:16;;;;;;;3.95;2.70;;;;;;;24.87;39.43;93420.66;4946477;28;20037;-78
2020/12/12 09:08:42;;;;;;;5.55;2.90;;;;;;;24.90;39.50;93421.53;4944654;28;20028;-78
2020/12/12 09:11:12;;;;;;;4.65;2.75;;;;;;;24.90;39.38;93422.28;4946255;28;20035;-77
2020/12/12 09:13:37;;;;;;;4.32;2.50;;;;;;;24.94;38.96;93427.34;4928620;29;20253;-78
2020/12/12 09:16:03;;;;;;;5.28;2.72;;;;;;;24.94;39.08;93417.16;4944497;28;20035;-79
2020/12/12 09:18:29;;;;;;;4.68;2.65;;;;;;;24.94;38.81;93424.63;4948325;28;20031;-78
2020/12/12 09:20:54;;;;;;;4.20;2.40;;;;;;;24.93;38.95;93415.72;4951164;28;20067;-77
2020/12/12 09:23:19;;;;;;;3.63;2.53;;;;;;;25.01;38.55;93419.13;4964362;28;20039;-78
2020/12/12 09:25:45;;;;;;;4.50;2.40;;;;;;;25.01;38.60;93416.41;4952824;28;20043;-78
2020/12/12 09:28:10;;;;;;;3.80;2.50;;;;;;;24.99;38.82;93410.78;4946816;28;20468;-78
2020/12/12 09:30:36;;;;;;;3.85;2.72;;;;;;;25.08;38.62;93410.16;4944712;28;20498;-84
2020/12/12 09:33:01;;;;;;;3.15;2.55;;;;;;;25.09;38.57;93406.13;4929416;28;20035;-77
2020/12/12 09:35:27;;;;;;;3.65;2.45;;;;;;;25.09;38.52;93400.66;4946044;28;20034;-78
2020/12/12 09:37:53;;;;;;;3.58;2.60;;;;;;;25.09;38.38;93399.94;4944261;28;20488;-76
2020/12/12 09:40:19;;;;;;;3.60;2.10;;;;;;;25.13;38.71;93401.00;4942952;28;20070;-77
2020/12/12 09:42:44;;;;;;;3.30;2.35;;;;;;;25.14;38.88;93410.66;4944024;28;20027;-80
2020/12/12 09:45:10;;;;;;;3.20;2.40;;;;;;;25.12;38.49;93405.00;4944874;28;20389;-79
2020/12/12 09:47:35;;;;;;;3.65;2.63;;;;;;;25.12;37.68;93394.09;4924643;28;20133;-79
2020/12/12 09:50:01;;;;;;;3.30;2.15;;;;;;;25.06;38.12;93390.84;4942311;28;20063;-77
2020/12/12 09:52:26;;;;;;;3.28;2.00;;;;;;;25.13;38.20;93394.81;4945842;28;20043;-79
2020/12/12 09:54:52;;;;;;;3.72;2.13;;;;;;;25.12;38.29;93394.09;4943491;28;20035;-77
2020/12/12 09:57:17;;;;;;;4.40;2.53;;;;;;;25.17;38.08;93390.41;4943970;28;20035;-79
2020/12/12 09:59:43;;;;;;;3.00;2.55;;;;;;;25.22;38.12;93394.91;4943389;28;20042;-79
2020/12/12 10:02:08;;;;;;;3.50;2.28;;;;;;;25.20;38.04;93392.03;4943184;28;20023;-78
2020/12/12 10:04:33;;;;;;;3.83;2.67;;;;;;;25.21;38.11;93401.66;4943918;28;20027;-76
2020/12/12 10:06:59;;;;;;;3.65;2.50;;;;;;;25.22;38.10;93397.66;4926451;28;20035;-78
2020/12/12 10:09:24;;;;;;;2.92;2.10;;;;;;;25.22;38.15;93402.41;4956394;28;20409;-78
2020/12/12 10:11:50;;;;;;;2.97;2.15;;;;;;;25.23;38.25;93393.66;4945276;28;22180;-78
2020/12/12 10:14:15;;;;;;;2.83;2.10;;;;;;;25.24;38.27;93395.06;4944891;28;20031;-77
2020/12/12 10:16:41;;;;;;;4.03;2.38;;;;;;;25.28;38.17;93389.94;4954743;28;20031;-78
2020/12/12 10:19:06;;;;;;;2.80;1.85;;;;;;;25.27;37.84;93396.69;4942747;28;20031;-78
2020/12/12 10:21:32;;;;;;;2.83;1.83;;;;;;;25.28;37.86;93384.47;4946315;28;20035;-76
2020/12/12 10:23:57;;;;;;;3.25;2.20;;;;;;;25.28;38.14;93389.94;4944561;28;20512;-77
2020/12/12 10:26:23;;;;;;;3.00;2.10;;;;;;;25.31;37.66;93380.63;4943416;28;20050;-77
2020/12/12 10:28:48;;;;;;;2.88;1.95;;;;;;;25.29;38.20;93380.47;4943753;28;20040;-79
2020/12/12 10:31:16;;;;;;;2.85;2.10;;;;;;;25.34;38.04;93388.41;4928012;28;20480;-77
2020/12/12 10:33:42;;;;;;;3.75;2.20;;;;;;;25.34;37.73;93376.78;4943807;28;20095;-79
2020/12/12 10:36:07;;;;;;;2.92;2.10;;;;;;;25.36;37.70;93374.19;4959106;28;20432;-79
2020/12/12 10:38:34;;;;;;;2.83;1.92;;;;;;;25.36;37.95;93374.19;4959044;28;22031;-77
2020/12/12 10:41:03;;;;;;;3.25;2.13;;;;;;;25.36;37.75;93374.19;4943509;28;20066;-76
2020/12/12 10:43:28;;;;;;;3.60;2.10;;;;;;;25.36;37.76;93374.91;4943282;29;20114;-78
2020/12/12 10:45:54;;;;;;;3.25;1.92;;;;;;;25.39;37.71;93381.28;4942956;28;22206;-78
2020/12/12 10:48:19;;;;;;;4.07;2.15;;;;;;;25.41;37.72;93373.22;4942911;28;20389;-77
2020/12/12 10:50:45;;;;;;;3.35;2.08;;;;;;;25.38;37.67;93366.16;4943479;28;20038;-78
2020/12/12 10:53:10;;;;;;;2.35;1.73;;;;;;;25.38;37.69;93360.69;4943200;28;20023;-77
2020/12/12 10:55:36;;;;;;;2.97;1.90;;;;;;;25.44;37.65;93363.91;4941741;28;20039;-76
2020/12/12 10:58:01;;;;;;;3.00;2.08;;;;;;;25.44;37.51;93363.91;4942543;28;20035;-77
2020/12/12 11:00:28;;;;;;;2.92;1.80;;;;;;;25.47;37.44;93368.25;4944163;28;20038;-79
2020/12/12 11:02:53;;;;;;;2.20;1.70;;;;;;;25.39;37.88;93362.16;4955304;28;20055;-79
2020/12/12 11:05:20;;;;;;;4.57;2.72;;;;;;;25.43;37.77;93362.47;4957905;28;20027;-78
2020/12/12 11:07:45;;;;;;;3.15;2.03;;;;;;;25.44;37.90;93369.38;4942552;28;20118;-79
2020/12/12 11:10:11;;;;;;;2.78;2.10;;;;;;;25.42;37.81;93371.94;4941670;28;20412;-80
2020/12/12 11:12:36;;;;;;;2.70;2.08;;;;;;;25.42;37.70;93371.94;4942948;28;20039;-79
2020/12/12 11:15:02;;;;;;;2.90;2.03;;;;;;;25.41;37.62;93359.56;4959711;28;20468;-77
2020/12/12 11:17:27;;;;;;;3.38;1.90;;;;;;;25.40;37.75;93360.88;4941553;28;20028;-79
2020/12/12 11:19:53;;;;;;;2.42;1.90;;;;;;;25.37;38.10;93364.72;4943054;28;20019;-78
2020/12/12 11:22:18;;;;;;;2.58;1.92;;;;;;;25.40;37.86;93369.78;4942839;28;20046;-78
2020/12/12 11:24:44;;;;;;;2.35;1.60;;;;;;;25.41;37.72;93365.03;4958195;28;20035;-79
2020/12/12 11:27:09;;;;;;;2.60;1.70;;;;;;;25.39;37.86;93370.34;4958265;28;20531;-78